createdAt,value
2018-12-03T00:01:23.481Z,10.00
2018-12-03T00:03:54.033Z,9.90
2018-12-03T00:06:23.932Z,9.90
2018-12-03T00:08:53.880Z,9.90
2018-12-03T00:11:23.779Z,9.90
2018-12-03T00:13:53.656Z,9.90
2018-12-03T00:16:23.733Z,9.90
2018-12-03T00:18:53.706Z,9.80
2018-12-03T00:21:23.608Z,9.80
2018-12-03T00:23:53.578Z,9.80
2018-12-03T00:26:23.542Z,9.80
2018-12-03T00:28:53.490Z,9.80
2018-12-03T00:31:23.477Z,9.80
2018-12-03T00:33:53.370Z,9.80
2018-12-03T00:36:23.384Z,9.80
2018-12-03T00:38:53.338Z,9.80
2018-12-03T00:41:23.234Z,9.80
2018-12-03T00:43:53.119Z,9.80
2018-12-03T00:46:22.960Z,9.80
2018-12-03T00:48:52.990Z,9.80
2018-12-03T00:51:22.873Z,9.90
2018-12-03T00:53:52.890Z,9.90
2018-12-03T00:56:22.746Z,9.90
2018-12-03T00:58:52.539Z,9.90
2018-12-03T01:01:22.408Z,9.90
2018-12-03T01:03:52.351Z,9.90
2018-12-03T01:06:22.350Z,9.80
2018-12-03T01:08:52.299Z,9.80
2018-12-03T01:11:22.155Z,9.90
2018-12-03T01:13:52.036Z,9.90
2018-12-03T01:16:22.104Z,9.90
2018-12-03T01:18:51.936Z,9.90
2018-12-03T01:21:21.689Z,9.90
2018-12-03T01:23:51.495Z,9.90
2018-12-03T01:26:21.415Z,9.80
2018-12-03T01:28:51.420Z,9.90
2018-12-03T01:31:21.319Z,9.90
2018-12-03T01:33:51.186Z,9.90
2018-12-03T01:36:21.093Z,9.90
2018-12-03T01:38:50.872Z,9.90
2018-12-03T01:41:20.816Z,9.90
2018-12-03T01:43:50.624Z,9.90
2018-12-03T01:46:20.503Z,9.90
2018-12-03T01:48:50.398Z,9.90
2018-12-03T01:51:20.338Z,9.90
2018-12-03T01:53:50.230Z,10.00
2018-12-03T01:56:20.199Z,9.90
2018-12-03T01:58:50.103Z,10.00
2018-12-03T02:01:19.876Z,10.00
2018-12-03T02:03:49.748Z,10.00
2018-12-03T02:06:19.650Z,10.00
2018-12-03T02:08:49.653Z,10.00
2018-12-03T02:11:19.673Z,10.00
2018-12-03T02:13:49.650Z,10.00
2018-12-03T02:16:19.430Z,10.00
2018-12-03T02:18:49.321Z,10.00
2018-12-03T02:21:19.103Z,10.00
2018-12-03T02:23:48.999Z,10.00
2018-12-03T02:26:18.847Z,9.90
2018-12-03T02:28:48.787Z,9.90
2018-12-03T02:31:18.696Z,9.90
2018-12-03T02:33:48.584Z,10.00
2018-12-03T02:36:18.445Z,10.00
2018-12-03T02:38:48.402Z,10.00
2018-12-03T02:41:18.320Z,10.00
2018-12-03T02:43:48.195Z,10.00
2018-12-03T02:46:18.171Z,10.00
2018-12-03T02:48:48.169Z,10.00
2018-12-03T02:51:18.081Z,10.00
2018-12-03T02:53:47.953Z,10.00
2018-12-03T02:56:17.838Z,10.00
2018-12-03T02:58:47.707Z,10.00
2018-12-03T03:01:17.667Z,10.00
2018-12-03T03:03:47.504Z,10.00
2018-12-03T03:06:17.368Z,10.00
2018-12-03T03:08:47.251Z,10.00
2018-12-03T03:11:17.125Z,10.00
2018-12-03T03:13:47.008Z,10.00
2018-12-03T03:16:16.931Z,10.00
2018-12-03T03:18:46.957Z,10.00
2018-12-03T03:21:16.893Z,10.00
2018-12-03T03:23:46.769Z,10.00
2018-12-03T03:26:16.644Z,10.00
2018-12-03T03:28:46.491Z,10.00
2018-12-03T03:31:16.450Z,10.00
2018-12-03T03:33:46.364Z,10.00
2018-12-03T03:36:16.401Z,10.00
2018-12-03T03:38:46.269Z,10.00
2018-12-03T03:41:16.153Z,10.00
2018-12-03T03:43:45.920Z,10.00
2018-12-03T03:46:15.800Z,10.00
2018-12-03T03:48:45.677Z,10.00
2018-12-03T03:51:15.614Z,10.00
2018-12-03T03:53:45.482Z,10.00
2018-12-03T03:56:15.361Z,10.00
2018-12-03T03:58:45.228Z,10.00
2018-12-03T04:01:15.094Z,10.00
2018-12-03T04:03:45.089Z,10.00
2018-12-03T04:06:15.028Z,9.90
2018-12-03T04:08:44.923Z,10.00
2018-12-03T04:11:14.915Z,9.90
2018-12-03T04:13:44.665Z,9.90
2018-12-03T04:16:14.541Z,9.90
2018-12-03T04:18:44.341Z,9.90
2018-12-03T04:21:14.347Z,9.90
2018-12-03T04:23:44.289Z,9.90
2018-12-03T04:26:14.232Z,9.90
2018-12-03T04:28:44.095Z,10.00
2018-12-03T04:31:13.861Z,9.90
2018-12-03T04:33:43.783Z,9.90
2018-12-03T04:36:13.773Z,9.90
2018-12-03T04:38:43.661Z,9.90
2018-12-03T04:41:13.561Z,9.90
2018-12-03T04:43:43.484Z,9.90
2018-12-03T04:46:13.387Z,9.90
2018-12-03T04:48:43.400Z,9.90
2018-12-03T04:51:13.323Z,9.90
2018-12-03T04:53:43.217Z,10.00
2018-12-03T04:56:13.134Z,9.90
2018-12-03T04:58:43.175Z,9.90
2018-12-03T05:01:13.255Z,9.90
2018-12-03T05:03:43.128Z,9.90
2018-12-03T05:06:13.106Z,9.90
2018-12-03T05:08:43.084Z,9.90
2018-12-03T05:11:13.040Z,9.90
2018-12-03T05:13:43.006Z,9.90
2018-12-03T05:16:12.991Z,9.90
2018-12-03T05:18:42.776Z,9.90
2018-12-03T05:21:12.690Z,9.90
2018-12-03T05:23:42.604Z,9.90
2018-12-03T05:26:12.497Z,9.90
2018-12-03T05:28:42.473Z,9.90
2018-12-03T05:31:12.381Z,9.90
2018-12-03T05:33:42.250Z,9.90
2018-12-03T05:36:12.168Z,9.90
2018-12-03T05:38:42.059Z,9.90
2018-12-03T05:41:11.940Z,9.90
2018-12-03T05:43:41.856Z,9.90
2018-12-03T05:46:11.709Z,9.80
2018-12-03T05:48:41.499Z,9.80
2018-12-03T05:51:11.415Z,9.80
2018-12-03T05:53:41.376Z,9.80
2018-12-03T05:56:11.290Z,9.80
2018-12-03T05:58:41.209Z,9.80
2018-12-03T06:01:11.111Z,9.80
2018-12-03T06:03:40.926Z,9.80
2018-12-03T06:06:10.798Z,9.90
2018-12-03T06:08:40.670Z,9.90
2018-12-03T06:11:10.498Z,9.90
2018-12-03T06:13:40.376Z,9.90
2018-12-03T06:16:10.184Z,9.90
2018-12-03T06:18:39.974Z,9.90
2018-12-03T06:21:09.996Z,9.90
2018-12-03T06:23:39.940Z,9.90
2018-12-03T06:26:09.896Z,9.90
2018-12-03T06:28:39.768Z,10.00
2018-12-03T06:31:09.607Z,10.00
2018-12-03T06:33:39.467Z,9.90
2018-12-03T06:36:09.298Z,9.90
2018-12-03T06:38:39.102Z,9.90
2018-12-03T06:41:08.982Z,9.90
2018-12-03T06:43:38.764Z,9.90
2018-12-03T06:46:08.561Z,9.90
2018-12-03T06:48:38.414Z,9.90
2018-12-03T06:51:08.271Z,9.90
2018-12-03T06:53:38.410Z,9.90
2018-12-03T06:56:08.303Z,9.90
2018-12-03T06:58:38.192Z,9.90
2018-12-03T07:01:08.009Z,9.90
2018-12-03T07:03:37.935Z,9.90
2018-12-03T07:06:07.713Z,10.00
2018-12-03T07:08:37.687Z,10.00
2018-12-03T07:11:07.625Z,10.00
2018-12-03T07:13:37.563Z,10.00
2018-12-03T07:16:07.598Z,10.00
2018-12-03T07:18:37.614Z,10.00
2018-12-03T07:21:08.072Z,10.10
2018-12-03T07:23:38.017Z,10.10
2018-12-03T07:26:08.025Z,10.10
2018-12-03T07:28:38.017Z,10.20
2018-12-03T07:31:08.393Z,10.20
2018-12-03T07:33:38.409Z,10.30
2018-12-03T07:36:08.491Z,10.30
2018-12-03T07:38:38.562Z,10.30
2018-12-03T07:41:08.545Z,10.40
2018-12-03T07:43:38.459Z,10.40
2018-12-03T07:46:09.532Z,10.40
2018-12-03T07:48:39.447Z,10.40
2018-12-03T07:51:09.369Z,10.40
2018-12-03T07:53:39.375Z,10.40
2018-12-03T07:56:09.451Z,10.40
2018-12-03T07:58:39.417Z,10.40
2018-12-03T08:01:09.376Z,10.40
2018-12-03T08:03:39.313Z,10.30
2018-12-03T08:06:09.204Z,10.30
2018-12-03T08:08:39.105Z,10.30
2018-12-03T08:11:09.150Z,10.30
2018-12-03T08:13:39.059Z,10.40
2018-12-03T08:16:08.901Z,10.50
2018-12-03T08:18:38.830Z,10.50
2018-12-03T08:21:09.834Z,10.50
2018-12-03T08:23:42.042Z,10.50
2018-12-03T08:26:12.607Z,10.60
2018-12-03T08:28:42.465Z,10.60
2018-12-03T08:31:12.342Z,10.60
2018-12-03T08:33:42.493Z,10.70
2018-12-03T08:36:13.642Z,10.70
2018-12-03T08:38:43.566Z,10.70
2018-12-03T08:41:13.348Z,10.70
2018-12-03T08:43:43.191Z,10.70
2018-12-03T08:46:13.168Z,10.70
2018-12-03T08:48:43.913Z,10.80
2018-12-03T08:51:14.246Z,10.80
2018-12-03T08:53:47.084Z,10.90
2018-12-03T08:56:17.020Z,11.10
2018-12-03T08:58:47.038Z,11.40
2018-12-03T09:01:18.874Z,11.60
2018-12-03T09:04:26.305Z,11.70
2018-12-03T09:06:56.085Z,11.90
2018-12-03T09:09:25.986Z,12.20
2018-12-03T09:11:55.925Z,12.50
2018-12-03T09:14:30.481Z,12.50
2018-12-03T09:17:02.633Z,12.40
2018-12-03T09:19:32.416Z,12.20
2018-12-03T09:22:02.338Z,12.10
2018-12-03T09:24:32.387Z,12.00
2018-12-03T09:27:02.264Z,12.10
2018-12-03T09:29:32.275Z,12.10
2018-12-03T09:32:02.285Z,12.10
2018-12-03T09:34:32.153Z,12.10
2018-12-03T09:37:02.151Z,12.10
2018-12-03T09:39:32.089Z,12.20
2018-12-03T09:42:02.156Z,12.20
2018-12-03T09:44:32.069Z,12.30
2018-12-03T09:47:01.896Z,12.30
2018-12-03T09:49:31.799Z,12.50
2018-12-03T09:52:01.933Z,12.70
2018-12-03T09:54:31.894Z,12.60
2018-12-03T09:57:01.889Z,12.70
2018-12-03T09:59:31.834Z,12.70
2018-12-03T10:02:03.629Z,12.70
2018-12-03T10:04:36.162Z,12.90
2018-12-03T10:07:06.503Z,13.20
2018-12-03T10:09:40.591Z,13.20
2018-12-03T10:12:11.235Z,13.00
2018-12-03T10:14:41.057Z,13.00
2018-12-03T10:17:11.049Z,13.00
2018-12-03T10:19:40.842Z,13.20
2018-12-03T10:22:10.873Z,13.40
2018-12-03T10:24:40.795Z,13.50
2018-12-03T10:27:14.563Z,13.60
2018-12-03T10:29:44.550Z,13.70
2018-12-03T10:32:19.117Z,13.70
2018-12-03T10:34:49.116Z,13.70
2018-12-03T10:37:20.914Z,13.70
2018-12-03T10:39:50.857Z,13.80
2018-12-03T10:42:21.078Z,13.80
2018-12-03T10:44:51.397Z,13.80
2018-12-03T10:47:21.393Z,13.70
2018-12-03T10:49:51.433Z,13.40
2018-12-03T10:52:22.953Z,13.40
2018-12-03T10:54:53.119Z,13.30
2018-12-03T10:57:24.146Z,13.20
2018-12-03T10:59:57.307Z,13.20
2018-12-03T11:02:46.397Z,13.20
2018-12-03T11:05:33.708Z,13.20
2018-12-03T11:08:03.719Z,13.20
2018-12-03T11:10:37.629Z,13.30
2018-12-03T11:13:07.990Z,13.50
2018-12-03T11:15:37.939Z,13.80
2018-12-03T11:18:08.695Z,14.00
2018-12-03T11:20:40.416Z,14.30
2018-12-03T11:23:17.640Z,15.30
2018-12-03T11:25:47.548Z,15.70
2018-12-03T11:28:20.729Z,15.40
2018-12-03T11:30:55.585Z,15.40
2018-12-03T11:33:27.402Z,15.20
2018-12-03T11:36:01.136Z,14.80
2018-12-03T11:38:44.005Z,14.70
2018-12-03T11:41:13.919Z,14.70
2018-12-03T11:43:44.741Z,14.70
2018-12-03T11:46:15.463Z,14.40
2018-12-03T11:48:45.597Z,14.30
2018-12-03T11:51:15.623Z,14.10
2018-12-03T11:53:45.661Z,14.10
2018-12-03T11:56:15.591Z,14.10
2018-12-03T11:58:45.573Z,14.10
2018-12-03T12:01:15.524Z,14.10
2018-12-03T12:03:45.517Z,14.40
2018-12-03T12:06:15.531Z,14.60
2018-12-03T12:08:45.513Z,14.80
2018-12-03T12:11:15.508Z,14.70
2018-12-03T12:13:45.405Z,14.60
2018-12-03T12:16:15.296Z,14.50
2018-12-03T12:18:45.224Z,14.60
2018-12-03T12:21:15.184Z,14.60
2018-12-03T12:23:45.093Z,14.70
2018-12-03T12:26:14.973Z,15.00
2018-12-03T12:28:44.820Z,15.00
2018-12-03T12:31:14.795Z,15.10
2018-12-03T12:33:44.672Z,15.00
2018-12-03T12:36:14.576Z,14.90
2018-12-03T12:38:44.564Z,14.70
2018-12-03T12:41:14.570Z,14.60
2018-12-03T12:43:44.552Z,14.40
2018-12-03T12:46:18.152Z,14.30
2018-12-03T12:48:47.999Z,14.30
2018-12-03T12:51:17.835Z,14.20
2018-12-03T12:53:48.039Z,14.20
2018-12-03T12:56:17.955Z,14.20
2018-12-03T12:58:47.967Z,14.10
2018-12-03T13:01:17.920Z,14.10
2018-12-03T13:03:47.899Z,14.10
2018-12-03T13:06:17.905Z,14.20
2018-12-03T13:08:47.853Z,14.10
2018-12-03T13:11:17.720Z,14.00
2018-12-03T13:13:47.731Z,14.00
2018-12-03T13:16:17.593Z,14.00
2018-12-03T13:18:47.667Z,13.90
2018-12-03T13:21:17.653Z,13.90
2018-12-03T13:23:47.541Z,13.90
2018-12-03T13:26:17.678Z,13.80
2018-12-03T13:28:47.554Z,13.80
2018-12-03T13:31:17.433Z,13.80
2018-12-03T13:33:47.328Z,13.80
2018-12-03T13:36:17.331Z,13.80
2018-12-03T13:38:47.304Z,13.80
2018-12-03T13:41:17.185Z,13.80
2018-12-03T13:43:47.148Z,13.80
2018-12-03T13:46:17.005Z,13.70
2018-12-03T13:48:47.080Z,13.70
2018-12-03T13:51:17.187Z,13.70
2018-12-03T13:53:47.093Z,13.80
2018-12-03T13:56:17.032Z,13.70
2018-12-03T13:58:47.004Z,13.70
2018-12-03T14:01:16.869Z,13.70
2018-12-03T14:03:47.615Z,13.70
2018-12-03T14:06:39.176Z,13.60
2018-12-03T14:09:35.230Z,13.60
2018-12-03T14:12:12.070Z,13.60
2018-12-03T14:15:06.690Z,13.50
2018-12-03T14:18:14.390Z,13.50
2018-12-03T14:20:46.866Z,13.50
2018-12-03T14:23:20.087Z,13.40
2018-12-03T14:25:50.064Z,13.40
2018-12-03T14:28:19.964Z,13.40
2018-12-03T14:30:49.833Z,13.30
2018-12-03T14:33:19.646Z,13.30
2018-12-03T14:35:49.530Z,13.30
2018-12-03T14:38:19.425Z,13.30
2018-12-03T14:40:49.268Z,13.30
2018-12-03T14:43:19.177Z,13.30
2018-12-03T14:45:49.132Z,13.20
2018-12-03T14:48:20.728Z,13.10
2018-12-03T14:50:50.680Z,13.20
2018-12-03T14:53:20.692Z,13.10
2018-12-03T14:55:50.719Z,13.10
2018-12-03T14:58:22.710Z,13.10
2018-12-03T15:00:52.611Z,13.10
2018-12-03T15:03:22.523Z,13.10
2018-12-03T15:05:52.395Z,13.00
2018-12-03T15:08:22.264Z,13.00
2018-12-03T15:10:52.141Z,13.00
2018-12-03T15:13:23.275Z,12.90
2018-12-03T15:15:53.320Z,12.90
2018-12-03T15:18:23.156Z,12.90
2018-12-03T15:20:56.243Z,12.90
2018-12-03T15:23:26.163Z,12.90
2018-12-03T15:25:56.061Z,12.80
2018-12-03T15:28:26.066Z,12.80
2018-12-03T15:30:56.031Z,12.80
2018-12-03T15:33:26.008Z,12.80
2018-12-03T15:35:56.004Z,12.80
2018-12-03T15:38:25.900Z,12.80
2018-12-03T15:40:55.796Z,12.80
2018-12-03T15:43:25.724Z,12.70
2018-12-03T15:45:55.686Z,12.70
2018-12-03T15:48:25.662Z,12.70
2018-12-03T15:50:55.469Z,12.60
2018-12-03T15:53:25.473Z,12.60
2018-12-03T15:55:55.456Z,12.50
2018-12-03T15:58:25.443Z,12.50
2018-12-03T16:00:55.363Z,12.40
2018-12-03T16:03:25.356Z,12.50
2018-12-03T16:05:55.342Z,12.40
2018-12-03T16:08:25.240Z,12.40
2018-12-03T16:10:55.260Z,12.40
2018-12-03T16:13:25.148Z,12.40
2018-12-03T16:15:55.054Z,12.40
2018-12-03T16:18:24.944Z,12.40
2018-12-03T16:20:54.830Z,12.40
2018-12-03T16:23:24.608Z,12.40
2018-12-03T16:25:54.580Z,12.30
2018-12-03T16:28:24.501Z,12.20
2018-12-03T16:31:00.669Z,12.20
2018-12-03T16:33:30.566Z,12.20
2018-12-03T16:36:00.990Z,12.10
2018-12-03T16:38:30.943Z,12.10
2018-12-03T16:41:00.964Z,12.10
2018-12-03T16:43:30.946Z,12.00
2018-12-03T16:46:00.922Z,12.00
2018-12-03T16:48:30.952Z,12.10
2018-12-03T16:51:00.918Z,12.10
2018-12-03T16:53:30.807Z,12.10
2018-12-03T16:56:00.758Z,12.10
2018-12-03T16:58:30.722Z,12.10
2018-12-03T17:01:00.707Z,12.00
2018-12-03T17:03:30.774Z,11.70
2018-12-03T17:06:00.799Z,11.60
2018-12-03T17:08:30.679Z,11.60
2018-12-03T17:11:00.554Z,11.40
2018-12-03T17:13:30.517Z,11.40
2018-12-03T17:16:00.459Z,11.30
2018-12-03T17:18:30.394Z,11.30
2018-12-03T17:21:25.046Z,11.30
2018-12-03T17:24:19.601Z,11.30
2018-12-03T17:26:49.482Z,11.20
2018-12-03T17:29:19.358Z,11.20
2018-12-03T17:31:49.351Z,11.20
2018-12-03T17:34:19.260Z,11.20
2018-12-03T17:36:49.092Z,11.10
2018-12-03T17:39:18.966Z,11.10
2018-12-03T17:41:48.846Z,11.10
2018-12-03T17:44:18.658Z,11.00
2018-12-03T17:46:48.653Z,10.90
2018-12-03T17:49:18.551Z,10.90
2018-12-03T17:51:48.319Z,10.80
2018-12-03T17:54:18.257Z,10.80
2018-12-03T17:56:48.149Z,10.70
2018-12-03T17:59:18.053Z,10.70
2018-12-03T18:01:48.033Z,10.70
2018-12-03T18:04:18.032Z,10.70
2018-12-03T18:06:48.090Z,10.60
2018-12-03T18:09:18.823Z,10.60
2018-12-03T18:11:49.096Z,10.60
2018-12-03T18:14:18.989Z,10.60
2018-12-03T18:16:49.033Z,10.70
2018-12-03T18:19:18.984Z,10.70
2018-12-03T18:21:48.923Z,10.80
2018-12-03T18:24:19.772Z,11.00
2018-12-03T18:26:50.912Z,11.30
2018-12-03T18:29:20.841Z,11.40
2018-12-03T18:31:50.874Z,11.40
2018-12-03T18:34:20.774Z,11.60
2018-12-03T18:36:50.704Z,11.70
2018-12-03T18:39:20.804Z,11.80
2018-12-03T18:41:50.827Z,11.80
2018-12-03T18:44:20.837Z,11.80
2018-12-03T18:46:50.848Z,11.80
2018-12-03T18:49:30.576Z,11.90
2018-12-03T18:52:00.471Z,11.90
2018-12-03T18:54:30.492Z,11.90
2018-12-03T18:57:00.414Z,11.90
2018-12-03T18:59:30.434Z,11.80
2018-12-03T19:02:00.287Z,11.70
2018-12-03T19:04:30.173Z,11.60
2018-12-03T19:07:00.118Z,11.50
2018-12-03T19:09:30.046Z,11.50
2018-12-03T19:12:00.053Z,11.40
2018-12-03T19:14:29.950Z,11.40
2018-12-03T19:16:59.777Z,11.50
2018-12-03T19:19:29.652Z,11.40
2018-12-03T19:21:59.626Z,11.30
2018-12-03T19:24:29.788Z,11.40
2018-12-03T19:26:59.778Z,11.30
2018-12-03T19:29:29.708Z,11.20
2018-12-03T19:31:59.733Z,11.20
2018-12-03T19:34:29.692Z,11.10
2018-12-03T19:36:59.612Z,11.00
2018-12-03T19:39:29.669Z,11.00
2018-12-03T19:41:59.724Z,10.80
2018-12-03T19:44:29.644Z,10.80
2018-12-03T19:46:59.548Z,10.70
2018-12-03T19:49:29.499Z,10.60
2018-12-03T19:52:00.529Z,10.60
2018-12-03T19:54:31.617Z,10.50
2018-12-03T19:57:02.791Z,10.50
2018-12-03T19:59:36.556Z,10.50
2018-12-03T20:02:06.498Z,10.50
2018-12-03T20:04:51.687Z,10.50
2018-12-03T20:07:21.661Z,10.50
2018-12-03T20:09:57.494Z,10.50
2018-12-03T20:12:27.310Z,10.40
2018-12-03T20:14:57.357Z,10.50
2018-12-03T20:17:30.823Z,10.50
2018-12-03T20:20:00.891Z,10.50
2018-12-03T20:22:35.980Z,10.40
2018-12-03T20:25:06.587Z,10.40
2018-12-03T20:27:42.265Z,10.50
2018-12-03T20:31:04.295Z,10.40
2018-12-03T20:34:05.527Z,10.30
2018-12-03T20:37:25.175Z,10.40
2018-12-03T20:40:24.434Z,10.30
2018-12-03T20:43:17.247Z,10.30
2018-12-03T20:46:24.580Z,10.30
2018-12-03T20:49:27.838Z,10.30
2018-12-03T20:52:19.712Z,10.40
2018-12-03T20:54:51.697Z,10.40
2018-12-03T20:57:21.632Z,10.50
2018-12-03T20:59:51.669Z,10.60
2018-12-03T21:02:23.177Z,10.70
2018-12-03T21:04:53.181Z,11.00
2018-12-03T21:07:23.107Z,11.20
2018-12-03T21:09:53.112Z,11.40
2018-12-03T21:12:23.011Z,11.40
2018-12-03T21:14:52.929Z,11.30
2018-12-03T21:17:23.073Z,11.20
2018-12-03T21:19:57.788Z,11.00
2018-12-03T21:22:27.781Z,10.90
2018-12-03T21:24:57.854Z,10.90
2018-12-03T21:27:27.972Z,10.80
2018-12-03T21:29:57.981Z,10.80
2018-12-03T21:32:27.977Z,10.80
2018-12-03T21:34:57.898Z,10.90
2018-12-03T21:37:27.846Z,10.90
2018-12-03T21:39:57.761Z,10.80
2018-12-03T21:42:27.682Z,10.80
2018-12-03T21:44:57.646Z,10.80
2018-12-03T21:47:27.720Z,10.80
2018-12-03T21:49:57.792Z,10.80
2018-12-03T21:52:27.811Z,10.90
2018-12-03T21:54:57.756Z,10.90
2018-12-03T21:57:27.824Z,10.90
2018-12-03T21:59:57.806Z,10.90
2018-12-03T22:02:27.836Z,10.80
2018-12-03T22:04:57.856Z,10.80
2018-12-03T22:07:27.793Z,10.70
2018-12-03T22:09:57.767Z,10.70
2018-12-03T22:12:27.682Z,10.70
2018-12-03T22:14:57.713Z,10.70
2018-12-03T22:17:27.982Z,10.70
2018-12-03T22:19:57.868Z,10.70
2018-12-03T22:22:27.866Z,10.80
2018-12-03T22:24:57.783Z,10.80
2018-12-03T22:27:27.816Z,10.70
2018-12-03T22:29:57.872Z,10.80
2018-12-03T22:33:11.745Z,10.80
2018-12-03T22:35:40.176Z,10.80
2018-12-03T22:38:08.599Z,10.80
2018-12-03T22:40:37.039Z,10.80
2018-12-03T22:43:05.620Z,10.80
2018-12-03T22:45:34.112Z,10.70
2018-12-03T22:48:02.797Z,10.50
2018-12-03T22:50:31.297Z,10.30
2018-12-03T22:53:00.101Z,10.20
2018-12-03T22:55:28.495Z,10.00
2018-12-03T22:57:56.956Z,9.90
2018-12-03T23:00:33.384Z,9.80
2018-12-03T23:03:01.856Z,9.70
2018-12-03T23:05:30.255Z,9.70
2018-12-03T23:07:58.766Z,9.60
2018-12-03T23:10:27.268Z,9.50
2018-12-03T23:12:55.691Z,9.40
2018-12-03T23:15:24.113Z,9.40
2018-12-03T23:17:52.529Z,9.40
2018-12-03T23:20:20.981Z,9.30
2018-12-03T23:22:49.424Z,9.30
2018-12-03T23:25:17.841Z,9.30
2018-12-03T23:27:46.225Z,9.20
2018-12-03T23:30:14.827Z,9.20
2018-12-03T23:32:43.251Z,9.20
2018-12-03T23:35:18.030Z,9.10
2018-12-03T23:37:46.538Z,9.10
2018-12-03T23:40:15.130Z,9.10
2018-12-03T23:42:43.645Z,9.00
2018-12-03T23:45:12.160Z,9.00
2018-12-03T23:47:40.738Z,9.00
2018-12-03T23:50:09.244Z,9.00
2018-12-03T23:52:37.800Z,8.90
2018-12-03T23:55:06.298Z,8.90
2018-12-03T23:57:34.750Z,8.90
